createdAt,value
2023-08-15T00:00:10.139Z,10.00
2023-08-15T00:00:48.876Z,10.10
2023-08-15T00:01:35.120Z,9.50
2023-08-15T00:02:08.308Z,9.60
2023-08-15T00:02:41.493Z,9.30
2023-08-15T00:03:14.763Z,10.70
2023-08-15T00:03:48.146Z,9.30
2023-08-15T00:04:21.268Z,10.10
2023-08-15T00:04:54.421Z,11.00
2023-08-15T00:05:27.575Z,10.20
2023-08-15T00:06:00.744Z,9.80
2023-08-15T00:06:33.788Z,9.80
2023-08-15T00:07:06.901Z,9.50
2023-08-15T00:07:39.966Z,8.00
2023-08-15T00:08:13.093Z,8.60
2023-08-15T00:08:46.145Z,8.10
2023-08-15T00:09:19.258Z,7.90
2023-08-15T00:09:52.383Z,7.80
2023-08-15T00:10:25.384Z,7.50
2023-08-15T00:10:58.338Z,7.90
2023-08-15T00:11:31.424Z,7.40
2023-08-15T00:12:04.639Z,7.20
2023-08-15T00:12:37.637Z,7.50
2023-08-15T00:13:10.862Z,7.80
2023-08-15T00:13:43.908Z,7.30
2023-08-15T00:14:17.415Z,7.90
2023-08-15T00:14:50.523Z,7.70
2023-08-15T00:15:23.568Z,7.20
2023-08-15T00:15:56.644Z,8.20
2023-08-15T00:16:29.744Z,7.20
2023-08-15T00:17:03.139Z,7.10
2023-08-15T00:17:36.484Z,7.40
2023-08-15T00:18:09.683Z,7.30
2023-08-15T00:18:43.429Z,7.70
2023-08-15T00:19:16.760Z,7.80
2023-08-15T00:19:50.038Z,7.30
2023-08-15T00:20:23.124Z,7.70
2023-08-15T00:20:56.186Z,7.60
2023-08-15T00:21:29.299Z,7.10
2023-08-15T00:22:02.268Z,7.10
2023-08-15T00:22:35.288Z,7.50
2023-08-15T00:23:08.502Z,6.40
2023-08-15T00:23:41.624Z,7.70
2023-08-15T00:24:14.647Z,8.00
2023-08-15T00:24:47.580Z,7.40
2023-08-15T00:25:20.611Z,9.40
2023-08-15T00:25:53.661Z,7.60
2023-08-15T00:26:26.807Z,8.00
2023-08-15T00:26:59.809Z,8.00
2023-08-15T00:27:32.822Z,7.40
2023-08-15T00:28:06.189Z,8.10
2023-08-15T00:28:39.245Z,6.70
2023-08-15T00:29:12.367Z,6.90
2023-08-15T00:29:45.434Z,7.90
2023-08-15T00:30:18.456Z,7.40
2023-08-15T00:30:51.802Z,7.30
2023-08-15T00:31:24.893Z,7.50
2023-08-15T00:31:58.104Z,7.60
2023-08-15T00:32:33.150Z,7.30
2023-08-15T00:33:06.275Z,7.00
2023-08-15T00:33:39.318Z,7.50
2023-08-15T00:34:12.478Z,7.00
2023-08-15T00:34:45.948Z,7.70
2023-08-15T00:35:19.002Z,7.30
2023-08-15T00:35:52.068Z,7.70
2023-08-15T00:36:25.117Z,6.50
2023-08-15T00:36:58.371Z,7.30
2023-08-15T00:37:32.947Z,7.70
2023-08-15T00:38:06.044Z,7.60
2023-08-15T00:38:39.350Z,7.20
2023-08-15T00:39:12.424Z,7.50
2023-08-15T00:39:45.568Z,7.80
2023-08-15T00:40:18.863Z,9.10
2023-08-15T00:40:52.533Z,7.60
2023-08-15T00:41:25.623Z,7.40
2023-08-15T00:41:58.681Z,8.00
2023-08-15T00:42:32.094Z,8.80
2023-08-15T00:43:05.134Z,7.60
2023-08-15T00:43:38.208Z,7.70
2023-08-15T00:44:11.241Z,6.90
2023-08-15T00:44:45.407Z,7.30
2023-08-15T00:45:18.549Z,7.60
2023-08-15T00:45:52.033Z,8.30
2023-08-15T00:46:26.064Z,7.60
2023-08-15T00:46:59.099Z,8.00
2023-08-15T00:47:32.368Z,8.60
2023-08-15T00:48:06.650Z,8.30
2023-08-15T00:48:39.776Z,8.40
2023-08-15T00:49:12.850Z,8.70
2023-08-15T00:49:46.491Z,8.40
2023-08-15T00:50:19.793Z,7.70
2023-08-15T00:50:52.914Z,8.90
2023-08-15T00:51:26.700Z,9.20
2023-08-15T00:51:59.796Z,8.80
2023-08-15T00:52:32.871Z,9.80
2023-08-15T00:53:06.461Z,9.00
2023-08-15T00:53:39.543Z,8.60
2023-08-15T00:54:12.632Z,9.30
2023-08-15T00:54:47.595Z,8.80
2023-08-15T00:55:20.891Z,9.40
2023-08-15T00:55:55.610Z,10.30
2023-08-15T00:56:28.623Z,9.80
2023-08-15T00:57:03.157Z,9.40
2023-08-15T00:57:36.118Z,9.70
2023-08-15T00:58:09.544Z,9.40
2023-08-15T00:58:43.556Z,9.30
2023-08-15T00:59:16.758Z,9.10
2023-08-15T00:59:49.977Z,10.00
2023-08-15T01:00:23.407Z,9.50
2023-08-15T01:00:56.658Z,10.40
2023-08-15T01:01:31.193Z,10.20
2023-08-15T01:02:04.488Z,10.30
2023-08-15T01:02:37.873Z,10.60
2023-08-15T01:03:11.302Z,10.30
2023-08-15T01:03:44.854Z,10.80
2023-08-15T01:04:18.431Z,10.70
2023-08-15T01:04:51.593Z,10.30
2023-08-15T01:05:25.105Z,11.00
2023-08-15T01:05:58.122Z,11.10
2023-08-15T01:06:31.156Z,10.80
2023-08-15T01:07:04.207Z,10.60
2023-08-15T01:07:37.305Z,11.20
2023-08-15T01:08:10.530Z,9.80
2023-08-15T01:08:43.699Z,11.00
2023-08-15T01:09:16.856Z,11.90
2023-08-15T01:09:50.001Z,11.60
2023-08-15T01:10:23.097Z,11.90
2023-08-15T01:10:56.243Z,11.20
2023-08-15T01:11:34.152Z,11.50
2023-08-15T01:12:25.798Z,11.20
2023-08-15T01:12:58.858Z,11.10
2023-08-15T01:13:35.041Z,11.70
2023-08-15T01:14:11.010Z,11.80
2023-08-15T01:15:01.270Z,11.60
2023-08-15T01:15:37.441Z,11.50
2023-08-15T01:16:15.062Z,11.30
2023-08-15T01:16:50.415Z,11.90
2023-08-15T01:17:30.185Z,13.20
2023-08-15T01:18:16.574Z,11.90
2023-08-15T01:18:52.993Z,11.80
2023-08-15T01:19:40.741Z,12.60
2023-08-15T01:20:15.650Z,12.10
2023-08-15T01:20:49.991Z,11.10
2023-08-15T01:21:26.458Z,12.20
2023-08-15T01:22:00.507Z,12.60
2023-08-15T01:22:33.933Z,12.00
2023-08-15T01:23:08.827Z,11.20
2023-08-15T01:23:45.760Z,12.80
2023-08-15T01:24:19.358Z,12.10
2023-08-15T01:24:52.795Z,11.20
2023-08-15T01:25:26.815Z,11.90
2023-08-15T01:25:59.878Z,11.20
2023-08-15T01:26:32.967Z,12.20
2023-08-15T01:27:06.025Z,11.20
2023-08-15T01:27:39.208Z,11.70
2023-08-15T01:28:16.146Z,11.40
2023-08-15T01:28:49.244Z,12.20
2023-08-15T01:29:22.230Z,11.60
2023-08-15T01:29:56.844Z,9.80
2023-08-15T01:30:29.964Z,9.70
2023-08-15T01:31:02.954Z,10.30
2023-08-15T01:31:36.032Z,9.80
2023-08-15T01:32:23.430Z,9.40
2023-08-15T01:32:59.326Z,8.80
2023-08-15T01:33:38.221Z,8.60
2023-08-15T01:34:18.987Z,8.50
2023-08-15T01:34:57.329Z,8.30
2023-08-15T01:35:51.573Z,8.20
2023-08-15T01:36:29.518Z,7.90
2023-08-15T01:37:04.921Z,7.50
2023-08-15T01:37:41.584Z,7.90
2023-08-15T01:38:27.927Z,7.60
2023-08-15T01:39:02.044Z,7.50
2023-08-15T01:39:36.242Z,8.00
2023-08-15T01:40:11.169Z,7.00
2023-08-15T01:40:45.583Z,7.90
2023-08-15T01:41:20.888Z,7.70
2023-08-15T01:41:55.072Z,7.60
2023-08-15T01:42:28.905Z,7.90
2023-08-15T01:43:03.853Z,8.00
2023-08-15T01:43:37.860Z,7.20
2023-08-15T01:44:12.260Z,7.40
2023-08-15T01:44:45.804Z,7.50
2023-08-15T01:45:18.899Z,7.60
2023-08-15T01:45:52.545Z,9.00
2023-08-15T01:46:25.629Z,8.30
2023-08-15T01:46:59.241Z,8.60
2023-08-15T01:47:33.764Z,7.80
2023-08-15T01:48:07.661Z,8.00
2023-08-15T01:48:44.537Z,8.20
2023-08-15T01:49:17.539Z,7.70
2023-08-15T01:49:50.632Z,7.80
2023-08-15T01:50:23.696Z,7.70
2023-08-15T01:50:56.621Z,8.10
2023-08-15T01:51:29.775Z,7.70
2023-08-15T01:52:02.902Z,8.90
2023-08-15T01:52:36.709Z,8.00
2023-08-15T01:53:09.759Z,8.40
2023-08-15T01:53:42.732Z,7.90
2023-08-15T01:54:17.167Z,8.10
2023-08-15T01:54:50.189Z,7.80
2023-08-15T01:55:23.171Z,8.20
2023-08-15T01:55:56.053Z,8.10
2023-08-15T01:56:29.036Z,7.40
2023-08-15T01:57:02.043Z,8.00
2023-08-15T01:57:35.231Z,7.80
2023-08-15T01:58:08.282Z,8.20
2023-08-15T01:58:41.375Z,7.30
2023-08-15T01:59:14.389Z,7.80
2023-08-15T01:59:47.647Z,8.30
2023-08-15T02:00:20.759Z,8.40
2023-08-15T02:00:53.774Z,8.80
2023-08-15T02:01:26.924Z,8.10
2023-08-15T02:01:59.972Z,8.30
2023-08-15T02:02:33.038Z,8.60
2023-08-15T02:03:06.091Z,7.70
2023-08-15T02:03:39.330Z,8.60
2023-08-15T02:04:12.477Z,8.50
2023-08-15T02:04:45.480Z,8.10
2023-08-15T02:05:18.664Z,8.30
2023-08-15T02:05:51.669Z,8.70
2023-08-15T02:06:24.886Z,7.40
2023-08-15T02:06:57.921Z,8.20
2023-08-15T02:07:30.971Z,7.90
2023-08-15T02:08:04.107Z,8.10
2023-08-15T02:08:37.207Z,7.30
2023-08-15T02:09:10.675Z,8.40
2023-08-15T02:09:43.627Z,7.80
2023-08-15T02:10:16.628Z,8.20
2023-08-15T02:10:49.973Z,8.20
2023-08-15T02:11:22.987Z,7.60
2023-08-15T02:11:55.916Z,7.30
2023-08-15T02:12:28.847Z,8.80
2023-08-15T02:13:01.980Z,8.50
2023-08-15T02:13:35.288Z,9.00
2023-08-15T02:14:08.334Z,8.90
2023-08-15T02:14:41.423Z,9.70
2023-08-15T02:15:15.436Z,8.90
2023-08-15T02:15:48.744Z,8.00
2023-08-15T02:16:21.827Z,9.20
2023-08-15T02:16:54.952Z,8.70
2023-08-15T02:17:27.983Z,8.80
2023-08-15T02:18:01.057Z,8.60
2023-08-15T02:18:34.119Z,9.90
2023-08-15T02:19:07.176Z,8.00
2023-08-15T02:19:40.254Z,8.90
2023-08-15T02:20:13.247Z,8.70
2023-08-15T02:20:46.318Z,9.70
2023-08-15T02:21:19.240Z,8.10
2023-08-15T02:21:52.682Z,9.10
2023-08-15T02:22:25.774Z,9.20
2023-08-15T02:22:58.834Z,8.30
2023-08-15T02:23:31.892Z,8.80
2023-08-15T02:24:05.210Z,8.30
2023-08-15T02:24:38.230Z,9.10
2023-08-15T02:25:11.384Z,8.80
2023-08-15T02:25:44.437Z,8.80
2023-08-15T02:26:17.487Z,8.70
2023-08-15T02:26:50.558Z,8.00
2023-08-15T02:27:23.529Z,9.10
2023-08-15T02:27:56.587Z,9.30
2023-08-15T02:28:29.782Z,8.90
2023-08-15T02:29:04.485Z,9.20
2023-08-15T02:29:37.606Z,9.10
2023-08-15T02:30:10.841Z,8.20
2023-08-15T02:30:44.222Z,9.10
2023-08-15T02:31:17.321Z,9.00
2023-08-15T02:31:50.442Z,8.80
2023-08-15T02:32:23.444Z,8.90
2023-08-15T02:32:56.625Z,9.20
2023-08-15T02:33:29.857Z,9.00
2023-08-15T02:34:02.857Z,9.10
2023-08-15T02:34:35.832Z,8.70
2023-08-15T02:35:09.294Z,8.90
2023-08-15T02:35:42.906Z,9.90
2023-08-15T02:36:15.979Z,9.50
2023-08-15T02:36:49.145Z,9.20
2023-08-15T02:37:22.421Z,8.40
2023-08-15T02:37:55.666Z,8.60
2023-08-15T02:38:28.728Z,8.80
2023-08-15T02:39:01.823Z,8.90
2023-08-15T02:39:34.934Z,9.10
2023-08-15T02:40:10.078Z,8.80
2023-08-15T02:40:43.477Z,8.90
2023-08-15T02:41:16.613Z,8.60
2023-08-15T02:41:49.607Z,8.70
2023-08-15T02:42:22.661Z,8.80
2023-08-15T02:42:55.675Z,9.40
2023-08-15T02:43:28.626Z,9.50
2023-08-15T02:44:02.010Z,9.40
2023-08-15T02:44:35.189Z,10.00
2023-08-15T02:45:08.602Z,9.20
2023-08-15T02:45:41.742Z,9.10
2023-08-15T02:46:14.815Z,8.80
2023-08-15T02:46:47.945Z,9.30
2023-08-15T02:47:21.249Z,9.40
2023-08-15T02:47:54.695Z,9.40
2023-08-15T02:48:28.212Z,9.60
2023-08-15T02:49:01.620Z,9.70
2023-08-15T02:49:34.589Z,8.80
2023-08-15T02:50:08.010Z,9.00
2023-08-15T02:50:41.076Z,8.80
2023-08-15T02:51:14.124Z,8.80
2023-08-15T02:51:47.119Z,9.50
2023-08-15T02:52:20.097Z,9.60
2023-08-15T02:52:53.117Z,9.50
2023-08-15T02:53:26.190Z,11.50
2023-08-15T02:53:59.219Z,10.30
2023-08-15T02:54:32.310Z,11.40
2023-08-15T02:55:05.732Z,11.70
2023-08-15T02:55:38.826Z,10.60
2023-08-15T02:56:11.870Z,10.90
2023-08-15T02:56:44.844Z,11.00
2023-08-15T02:57:17.942Z,13.00
2023-08-15T02:57:50.921Z,13.10
2023-08-15T02:58:23.994Z,13.10
2023-08-15T02:58:57.060Z,12.30
2023-08-15T02:59:30.187Z,12.30
2023-08-15T03:00:03.857Z,13.00
2023-08-15T03:00:37.562Z,13.00
2023-08-15T03:01:10.656Z,12.20
2023-08-15T03:01:43.791Z,12.40
2023-08-15T03:02:17.819Z,12.10
2023-08-15T03:02:51.068Z,11.90
2023-08-15T03:03:24.164Z,12.10
2023-08-15T03:03:57.404Z,11.70
2023-08-15T03:04:31.070Z,11.30
2023-08-15T03:05:04.882Z,11.80
2023-08-15T03:05:38.686Z,11.40
2023-08-15T03:06:11.908Z,10.40
2023-08-15T03:06:45.759Z,10.40
2023-08-15T03:07:19.061Z,10.10
2023-08-15T03:07:52.366Z,9.00
2023-08-15T03:08:25.378Z,9.00
2023-08-15T03:08:59.077Z,8.40
2023-08-15T03:09:32.167Z,8.10
2023-08-15T03:10:05.356Z,7.70
2023-08-15T03:10:40.633Z,8.60
2023-08-15T03:11:13.727Z,7.80
2023-08-15T03:11:46.895Z,7.80
2023-08-15T03:12:19.991Z,7.40
2023-08-15T03:12:53.042Z,7.70
2023-08-15T03:13:26.396Z,8.00
2023-08-15T03:14:02.277Z,8.10
2023-08-15T03:14:35.623Z,8.40
2023-08-15T03:15:08.800Z,8.30
2023-08-15T03:15:41.927Z,8.20
2023-08-15T03:16:15.059Z,8.40
2023-08-15T03:16:48.224Z,8.50
2023-08-15T03:17:23.648Z,7.90
2023-08-15T03:17:58.757Z,8.50
2023-08-15T03:18:32.056Z,8.40
2023-08-15T03:19:05.037Z,7.60
2023-08-15T03:19:39.102Z,8.30
2023-08-15T03:20:13.495Z,9.10
2023-08-15T03:20:55.795Z,8.70
2023-08-15T03:21:28.991Z,9.20
2023-08-15T03:22:02.609Z,10.00
2023-08-15T03:22:35.655Z,11.00
2023-08-15T03:23:08.934Z,11.10
2023-08-15T03:23:42.057Z,11.60
2023-08-15T03:24:16.804Z,10.90
2023-08-15T03:24:49.842Z,12.30
2023-08-15T03:25:23.073Z,11.30
2023-08-15T03:26:03.202Z,11.70
2023-08-15T03:26:37.343Z,12.00
2023-08-15T03:27:10.536Z,12.00
2023-08-15T03:27:43.546Z,11.90
2023-08-15T03:28:16.568Z,11.80
2023-08-15T03:28:49.599Z,11.50
2023-08-15T03:29:22.795Z,11.00
2023-08-15T03:29:55.796Z,12.20
2023-08-15T03:30:28.993Z,11.70
2023-08-15T03:31:06.291Z,12.00
2023-08-15T03:31:39.413Z,12.60
2023-08-15T03:32:12.560Z,12.60
2023-08-15T03:32:45.749Z,11.70
2023-08-15T03:33:18.980Z,12.00
2023-08-15T03:33:52.099Z,11.00
2023-08-15T03:34:25.304Z,11.70
2023-08-15T03:34:58.342Z,10.90
2023-08-15T03:35:31.441Z,10.90
2023-08-15T03:36:04.853Z,11.10
2023-08-15T03:36:37.896Z,10.80
2023-08-15T03:37:10.960Z,11.30
2023-08-15T03:37:44.039Z,11.90
2023-08-15T03:38:17.760Z,10.90
2023-08-15T03:38:50.846Z,12.40
2023-08-15T03:39:23.884Z,11.10
2023-08-15T03:39:56.915Z,12.20
2023-08-15T03:40:30.005Z,11.30
2023-08-15T03:41:06.857Z,11.70
2023-08-15T03:41:39.997Z,11.00
2023-08-15T03:42:13.076Z,10.70
2023-08-15T03:42:46.191Z,11.00
2023-08-15T03:43:19.211Z,11.10
2023-08-15T03:43:52.412Z,10.30
2023-08-15T03:44:25.475Z,10.50
2023-08-15T03:44:58.573Z,10.20
2023-08-15T03:45:31.676Z,11.00
2023-08-15T03:46:05.626Z,10.80
2023-08-15T03:46:39.105Z,10.60
2023-08-15T03:47:12.314Z,11.00
2023-08-15T03:47:45.296Z,11.10
2023-08-15T03:48:18.278Z,10.20
2023-08-15T03:48:51.460Z,11.30
2023-08-15T03:49:24.807Z,11.30
2023-08-15T03:50:01.011Z,10.20
2023-08-15T03:50:38.634Z,8.90
2023-08-15T03:51:15.521Z,9.50
2023-08-15T03:51:56.173Z,9.00
2023-08-15T03:52:29.194Z,8.20
2023-08-15T03:53:02.721Z,8.50
2023-08-15T03:53:35.659Z,7.90
2023-08-15T03:54:09.745Z,8.00
2023-08-15T03:54:42.815Z,8.50
2023-08-15T03:55:15.911Z,8.10
2023-08-15T03:55:50.622Z,8.80
2023-08-15T03:56:23.718Z,8.60
2023-08-15T03:56:56.665Z,8.40
2023-08-15T03:57:29.690Z,8.10
2023-08-15T03:58:02.644Z,8.80
2023-08-15T03:58:35.798Z,9.70
2023-08-15T03:59:08.837Z,9.20
2023-08-15T03:59:41.856Z,8.90
2023-08-15T04:00:15.118Z,8.90
2023-08-15T04:00:48.297Z,8.90
2023-08-15T04:01:21.438Z,9.80
2023-08-15T04:01:57.194Z,8.90
2023-08-15T04:02:31.991Z,9.50
2023-08-15T04:03:05.333Z,9.30
2023-08-15T04:03:38.549Z,9.90
2023-08-15T04:04:12.531Z,9.10
2023-08-15T04:04:45.764Z,10.10
2023-08-15T04:05:22.332Z,9.30
2023-08-15T04:05:55.402Z,9.20
2023-08-15T04:06:28.471Z,10.50
2023-08-15T04:07:01.637Z,9.70
2023-08-15T04:07:34.784Z,9.20
2023-08-15T04:08:07.921Z,9.40
2023-08-15T04:08:41.323Z,10.30
2023-08-15T04:09:14.473Z,9.50
2023-08-15T04:09:47.784Z,10.20
2023-08-15T04:10:20.944Z,9.50
2023-08-15T04:10:54.190Z,10.70
2023-08-15T04:11:27.516Z,10.10
2023-08-15T04:12:00.572Z,10.80
2023-08-15T04:12:34.577Z,10.00
2023-08-15T04:13:11.239Z,10.20
2023-08-15T04:13:44.242Z,10.10
2023-08-15T04:14:17.365Z,9.80
2023-08-15T04:14:50.444Z,10.10
2023-08-15T04:15:23.853Z,10.00
2023-08-15T04:15:57.039Z,9.80
2023-08-15T04:16:30.158Z,9.30
2023-08-15T04:17:04.897Z,8.00
2023-08-15T04:17:38.095Z,8.10
2023-08-15T04:18:11.544Z,8.70
2023-08-15T04:18:44.653Z,9.40
2023-08-15T04:19:17.809Z,9.10
2023-08-15T04:19:50.968Z,9.00
2023-08-15T04:20:24.000Z,8.80
2023-08-15T04:20:57.153Z,9.90
2023-08-15T04:21:30.270Z,9.50
2023-08-15T04:22:03.524Z,10.40
2023-08-15T04:22:37.517Z,9.70
2023-08-15T04:23:10.721Z,8.90
2023-08-15T04:23:43.794Z,9.00
2023-08-15T04:24:17.186Z,9.50
2023-08-15T04:24:50.409Z,8.50
2023-08-15T04:25:23.604Z,9.20
2023-08-15T04:25:56.658Z,9.50
2023-08-15T04:26:29.778Z,9.00
2023-08-15T04:27:02.924Z,9.30
2023-08-15T04:27:36.033Z,9.00
2023-08-15T04:28:09.104Z,10.10
2023-08-15T04:28:42.152Z,9.20
2023-08-15T04:29:15.189Z,9.40
2023-08-15T04:29:48.262Z,8.90
2023-08-15T04:30:22.095Z,9.20
2023-08-15T04:30:55.149Z,10.00
2023-08-15T04:31:28.381Z,9.40
2023-08-15T04:32:01.582Z,10.50
2023-08-15T04:32:34.822Z,9.70
2023-08-15T04:33:08.626Z,8.90
2023-08-15T04:33:41.768Z,9.50
2023-08-15T04:34:14.821Z,9.70
2023-08-15T04:34:49.905Z,9.60
2023-08-15T04:35:23.664Z,9.90
2023-08-15T04:35:56.751Z,10.40
2023-08-15T04:36:29.886Z,9.60
2023-08-15T04:37:02.887Z,9.30
2023-08-15T04:37:35.955Z,9.20
2023-08-15T04:38:09.028Z,9.70
2023-08-15T04:38:42.112Z,10.40
2023-08-15T04:39:15.286Z,9.90
2023-08-15T04:39:48.299Z,10.20
2023-08-15T04:40:32.137Z,10.50
2023-08-15T04:41:06.238Z,10.40
2023-08-15T04:41:39.380Z,11.20
2023-08-15T04:42:12.352Z,12.50
2023-08-15T04:42:45.502Z,13.90
2023-08-15T04:43:19.418Z,14.30
2023-08-15T04:43:52.396Z,14.50
2023-08-15T04:44:25.508Z,13.30
2023-08-15T04:44:58.606Z,13.70
2023-08-15T04:45:31.637Z,12.50
2023-08-15T04:46:04.813Z,12.10
2023-08-15T04:46:38.068Z,13.00
2023-08-15T04:47:11.098Z,11.40
2023-08-15T04:47:44.262Z,12.80
2023-08-15T04:48:17.447Z,12.40
2023-08-15T04:48:50.616Z,12.10
2023-08-15T04:49:23.860Z,11.50
2023-08-15T04:49:57.088Z,12.10
2023-08-15T04:50:30.086Z,13.70
2023-08-15T04:51:03.149Z,12.30
2023-08-15T04:51:36.252Z,12.00
2023-08-15T04:52:09.370Z,12.20
2023-08-15T04:52:42.442Z,11.10
2023-08-15T04:53:15.477Z,10.90
2023-08-15T04:53:48.388Z,12.10
2023-08-15T04:54:21.352Z,12.50
2023-08-15T04:54:54.408Z,11.60
2023-08-15T04:55:27.386Z,12.40
2023-08-15T04:56:00.488Z,11.70
2023-08-15T04:56:33.433Z,11.80
2023-08-15T04:57:07.022Z,12.80
2023-08-15T04:57:40.354Z,12.60
2023-08-15T04:58:13.343Z,13.00
2023-08-15T04:58:46.369Z,16.50
2023-08-15T04:59:20.185Z,13.70
2023-08-15T04:59:53.263Z,12.10
2023-08-15T05:00:26.613Z,12.60
2023-08-15T05:00:59.676Z,12.80
2023-08-15T05:01:32.723Z,12.30
2023-08-15T05:02:05.769Z,12.40
2023-08-15T05:02:41.994Z,12.50
2023-08-15T05:03:15.055Z,12.10
2023-08-15T05:03:48.080Z,11.50
2023-08-15T05:04:21.246Z,12.30
2023-08-15T05:04:54.267Z,11.10
2023-08-15T05:05:27.456Z,11.50
2023-08-15T05:06:00.641Z,11.50
2023-08-15T05:06:33.754Z,12.60
2023-08-15T05:07:06.744Z,11.60
2023-08-15T05:07:40.099Z,16.70
2023-08-15T05:08:13.587Z,17.10
2023-08-15T05:08:46.632Z,13.30
2023-08-15T05:09:19.588Z,13.20
2023-08-15T05:09:52.793Z,12.60
2023-08-15T05:10:26.884Z,13.50
2023-08-15T05:11:03.397Z,12.10
2023-08-15T05:11:36.530Z,12.60
2023-08-15T05:12:10.229Z,11.60
2023-08-15T05:12:43.290Z,11.80
2023-08-15T05:13:16.458Z,10.90
2023-08-15T05:13:49.531Z,11.60
2023-08-15T05:14:23.304Z,10.70
2023-08-15T05:14:56.582Z,10.10
2023-08-15T05:15:30.022Z,12.30
2023-08-15T05:16:03.169Z,12.20
2023-08-15T05:16:36.294Z,12.30
2023-08-15T05:17:09.351Z,12.30
2023-08-15T05:17:42.525Z,10.70
2023-08-15T05:18:18.861Z,10.40
2023-08-15T05:18:51.904Z,11.10
2023-08-15T05:19:25.715Z,10.90
2023-08-15T05:19:58.828Z,11.40
2023-08-15T05:20:33.700Z,12.20
2023-08-15T05:21:06.789Z,11.40
2023-08-15T05:21:41.501Z,13.10
2023-08-15T05:22:15.072Z,12.20
2023-08-15T05:22:49.453Z,13.30
2023-08-15T05:23:22.456Z,13.20
2023-08-15T05:23:55.606Z,11.80
2023-08-15T05:24:28.729Z,11.60
2023-08-15T05:25:01.997Z,10.60
2023-08-15T05:25:35.458Z,11.00
2023-08-15T05:26:08.402Z,11.30
2023-08-15T05:26:41.401Z,10.80
2023-08-15T05:27:14.476Z,10.30
2023-08-15T05:27:47.523Z,11.70
2023-08-15T05:28:20.554Z,11.70
2023-08-15T05:28:53.599Z,11.70
2023-08-15T05:29:26.667Z,12.70
2023-08-15T05:29:59.773Z,11.40
2023-08-15T05:30:35.830Z,12.10
2023-08-15T05:31:09.102Z,11.40
2023-08-15T05:31:42.256Z,10.70
2023-08-15T05:32:15.370Z,10.80
2023-08-15T05:32:48.440Z,14.00
2023-08-15T05:33:21.474Z,11.40
2023-08-15T05:33:54.547Z,12.00
2023-08-15T05:34:27.577Z,11.80
2023-08-15T05:35:00.578Z,12.00
2023-08-15T05:35:34.277Z,11.30
2023-08-15T05:36:07.232Z,9.90
2023-08-15T05:36:40.215Z,11.00
2023-08-15T05:37:13.232Z,10.90
2023-08-15T05:37:46.198Z,10.10
2023-08-15T05:38:19.327Z,10.60
2023-08-15T05:38:52.373Z,11.00
2023-08-15T05:39:25.388Z,10.80
2023-08-15T05:39:58.470Z,10.00
2023-08-15T05:40:31.805Z,9.90
2023-08-15T05:41:05.011Z,10.10
2023-08-15T05:41:38.027Z,10.50
2023-08-15T05:42:12.125Z,10.80
2023-08-15T05:42:45.202Z,11.00
2023-08-15T05:43:18.401Z,12.30
2023-08-15T05:43:51.607Z,11.60
2023-08-15T05:44:24.919Z,10.00
2023-08-15T05:44:58.017Z,10.00
2023-08-15T05:45:31.158Z,11.40
2023-08-15T05:46:04.277Z,11.60
2023-08-15T05:46:37.339Z,12.20
2023-08-15T05:47:10.504Z,10.60
2023-08-15T05:47:43.610Z,11.00
2023-08-15T05:48:16.816Z,11.50
2023-08-15T05:48:49.863Z,13.50
2023-08-15T05:49:23.036Z,12.90
2023-08-15T05:49:56.598Z,10.50
2023-08-15T05:50:29.732Z,10.20
2023-08-15T05:51:02.963Z,11.30
2023-08-15T05:51:36.125Z,10.10
2023-08-15T05:52:09.140Z,11.00
2023-08-15T05:52:42.125Z,10.30
2023-08-15T05:53:15.804Z,9.90
2023-08-15T05:53:49.059Z,10.90
2023-08-15T05:54:22.953Z,10.20
2023-08-15T05:54:56.526Z,10.10
2023-08-15T05:55:29.642Z,11.60
2023-08-15T05:56:02.950Z,10.90
2023-08-15T05:56:35.878Z,10.10
2023-08-15T05:57:08.968Z,10.20
2023-08-15T05:57:41.950Z,9.50
2023-08-15T05:58:16.217Z,9.40
2023-08-15T05:58:49.555Z,9.80
2023-08-15T05:59:22.769Z,9.80
2023-08-15T05:59:56.017Z,9.00
2023-08-15T06:00:29.134Z,9.10
2023-08-15T06:01:02.288Z,8.90
2023-08-15T06:01:35.415Z,9.60
2023-08-15T06:02:08.811Z,10.30
2023-08-15T06:02:42.103Z,9.70
2023-08-15T06:03:15.788Z,10.70
2023-08-15T06:03:53.097Z,10.00
2023-08-15T06:04:26.682Z,10.10
2023-08-15T06:04:59.798Z,9.90
2023-08-15T06:05:32.975Z,9.60
2023-08-15T06:06:07.031Z,9.80
2023-08-15T06:06:45.253Z,9.90
2023-08-15T06:07:18.381Z,9.50
2023-08-15T06:07:51.837Z,9.30
2023-08-15T06:08:25.912Z,10.00
2023-08-15T06:08:59.439Z,9.40
2023-08-15T06:09:32.756Z,10.50
2023-08-15T06:10:06.886Z,9.90
2023-08-15T06:10:40.539Z,9.80
2023-08-15T06:11:13.646Z,10.10
2023-08-15T06:11:47.190Z,9.60
2023-08-15T06:12:20.294Z,10.60
2023-08-15T06:12:53.633Z,9.20
2023-08-15T06:13:26.781Z,8.80
2023-08-15T06:13:59.904Z,10.70
2023-08-15T06:14:33.856Z,12.70
2023-08-15T06:15:07.272Z,13.40
2023-08-15T06:15:40.183Z,10.40
2023-08-15T06:16:14.110Z,9.70
2023-08-15T06:16:48.338Z,10.10
2023-08-15T06:17:21.794Z,10.50
2023-08-15T06:17:55.156Z,9.70
2023-08-15T06:18:28.200Z,10.20
2023-08-15T06:19:02.360Z,9.80
2023-08-15T06:19:35.453Z,10.30
2023-08-15T06:20:08.768Z,9.90
2023-08-15T06:20:41.920Z,9.90
2023-08-15T06:21:15.068Z,11.00
2023-08-15T06:21:48.274Z,9.90
2023-08-15T06:22:21.513Z,9.60
2023-08-15T06:22:54.687Z,10.10
2023-08-15T06:23:27.948Z,9.40
2023-08-15T06:24:01.218Z,10.30
2023-08-15T06:24:34.338Z,9.80
2023-08-15T06:25:07.879Z,10.10
2023-08-15T06:25:42.329Z,10.00
2023-08-15T06:26:15.477Z,11.00
2023-08-15T06:26:49.058Z,11.40
2023-08-15T06:27:22.362Z,11.00
2023-08-15T06:27:55.779Z,11.50
2023-08-15T06:28:28.766Z,10.40
2023-08-15T06:29:01.766Z,10.30
2023-08-15T06:29:35.078Z,12.00
2023-08-15T06:30:08.455Z,12.00
2023-08-15T06:30:42.440Z,10.70
2023-08-15T06:31:15.710Z,11.10
2023-08-15T06:31:48.786Z,9.80
2023-08-15T06:32:28.663Z,9.90
2023-08-15T06:33:01.869Z,10.60
2023-08-15T06:33:34.926Z,11.90
2023-08-15T06:34:08.853Z,11.10
2023-08-15T06:34:41.840Z,12.60
2023-08-15T06:35:14.990Z,15.00
2023-08-15T06:35:48.166Z,11.90
2023-08-15T06:36:23.355Z,11.00
2023-08-15T06:36:56.883Z,9.90
2023-08-15T06:37:29.866Z,12.50
2023-08-15T06:38:02.970Z,11.90
2023-08-15T06:38:36.164Z,11.70
2023-08-15T06:39:09.596Z,11.50
2023-08-15T06:39:42.876Z,11.70
2023-08-15T06:40:16.260Z,12.40
2023-08-15T06:40:49.968Z,12.60
2023-08-15T06:41:23.025Z,14.20
2023-08-15T06:41:56.176Z,13.00
2023-08-15T06:42:29.181Z,14.60
2023-08-15T06:43:02.239Z,13.30
2023-08-15T06:43:35.547Z,12.70
2023-08-15T06:44:08.925Z,13.20
2023-08-15T06:44:45.037Z,13.90
2023-08-15T06:45:20.273Z,12.50
2023-08-15T06:45:53.332Z,12.40
2023-08-15T06:46:26.447Z,12.20
2023-08-15T06:46:59.521Z,12.10
2023-08-15T06:47:32.811Z,11.50
2023-08-15T06:48:07.050Z,10.70
2023-08-15T06:48:40.187Z,11.50
2023-08-15T06:49:13.293Z,12.00
2023-08-15T06:49:46.509Z,11.30
2023-08-15T06:50:20.241Z,11.00
2023-08-15T06:50:53.573Z,11.50
2023-08-15T06:51:26.593Z,11.50
2023-08-15T06:51:59.610Z,10.90
2023-08-15T06:52:32.740Z,10.90
2023-08-15T06:53:05.681Z,10.70
2023-08-15T06:53:41.617Z,10.70
2023-08-15T06:54:14.565Z,11.70
2023-08-15T06:54:47.737Z,12.80
2023-08-15T06:55:20.809Z,13.70
2023-08-15T06:55:53.939Z,10.10
2023-08-15T06:56:27.059Z,9.70
2023-08-15T06:57:00.198Z,10.40
2023-08-15T06:57:33.931Z,8.80
2023-08-15T06:58:07.019Z,8.60
2023-08-15T06:58:40.413Z,10.30
2023-08-15T06:59:14.028Z,10.20
2023-08-15T06:59:47.110Z,9.50
2023-08-15T07:00:21.161Z,10.80
2023-08-15T07:00:55.437Z,10.10
2023-08-15T07:01:28.643Z,10.30
2023-08-15T07:02:02.306Z,11.00
2023-08-15T07:02:35.574Z,9.90
2023-08-15T07:03:08.862Z,9.50
2023-08-15T07:03:42.105Z,9.60
2023-08-15T07:04:15.298Z,10.70
2023-08-15T07:04:50.173Z,10.20
2023-08-15T07:05:23.276Z,12.30
2023-08-15T07:05:56.347Z,10.10
2023-08-15T07:06:29.510Z,9.40
2023-08-15T07:07:02.640Z,9.60
2023-08-15T07:07:36.290Z,10.10
2023-08-15T07:08:09.469Z,10.30
2023-08-15T07:08:43.473Z,10.50
2023-08-15T07:09:16.696Z,10.20
2023-08-15T07:09:50.504Z,8.70
2023-08-15T07:10:23.662Z,9.70
2023-08-15T07:10:59.775Z,10.20
2023-08-15T07:11:33.016Z,9.90
2023-08-15T07:12:09.275Z,11.00
2023-08-15T07:12:42.745Z,10.50
2023-08-15T07:13:16.635Z,10.10
2023-08-15T07:13:49.673Z,10.80
2023-08-15T07:14:23.116Z,10.90
2023-08-15T07:14:56.113Z,11.80
2023-08-15T07:15:29.383Z,9.50
2023-08-15T07:16:03.179Z,8.60
2023-08-15T07:16:36.399Z,8.20
2023-08-15T07:17:09.586Z,8.60
2023-08-15T07:17:42.851Z,8.80
2023-08-15T07:18:16.057Z,10.10
2023-08-15T07:19:27.056Z,9.20
2023-08-15T07:20:00.169Z,8.10
2023-08-15T07:20:34.473Z,9.40
2023-08-15T07:21:07.999Z,10.40
2023-08-15T07:21:42.889Z,11.40